Time;durP1;ratioP1;P1;durP2;ratioP2;P2;SDS_P1;SDS_P2;PMS_P1;PMS_P2;Temp;Humidity;BMP_temperature;BMP_pressure;BME280_temperature;BME280_humidity;BME280_pressure;Samples;Min_cycle;Max_cycle;Signal;HPM_P1;HPM_P2
2021/09/09 00:01:32;;;;;;;9.17;8.13;;;;;;;;;;5022129;28;20467;-82
2021/09/09 00:04:00;;;;;;;11.37;9.60;;;;;;;;;;5042744;28;20755;-82
2021/09/09 00:06:26;;;;;;;11.63;9.60;;;;;;;;;;5025769;28;20441;-83
2021/09/09 00:08:52;;;;;;;9.93;9.03;;;;;;;;;;5022046;28;20419;-83
2021/09/09 00:11:18;;;;;;;10.40;9.50;;;;;;;;;;5042463;28;20426;-83
2021/09/09 00:13:44;;;;;;;9.87;8.93;;;;;;;;;;5021745;28;20743;-82
2021/09/09 00:16:10;;;;;;;9.97;8.97;;;;;;;;;;5042748;28;20399;-83
2021/09/09 00:18:36;;;;;;;9.23;8.17;;;;;;;;;;5027704;28;20442;-83
2021/09/09 00:21:03;;;;;;;8.90;8.00;;;;;;;;;;5042656;28;20413;-83
2021/09/09 00:23:29;;;;;;;10.00;8.87;;;;;;;;;;5021727;28;20431;-83
2021/09/09 00:25:55;;;;;;;11.70;8.90;;;;;;;;;;5023169;28;20445;-83
2021/09/09 00:28:21;;;;;;;9.63;8.43;;;;;;;;;;5022454;28;20399;-84
2021/09/09 00:30:47;;;;;;;9.90;9.00;;;;;;;;;;5040288;28;20427;-82
2021/09/09 00:33:13;;;;;;;9.77;8.73;;;;;;;;;;5024681;28;20408;-83
2021/09/09 00:35:39;;;;;;;9.37;8.53;;;;;;;;;;5044802;28;20406;-82
2021/09/09 00:38:05;;;;;;;14.37;9.73;;;;;;;;;;5047062;28;20411;-83
2021/09/09 00:40:32;;;;;;;10.27;9.27;;;;;;;;;;5026164;28;20561;-82
2021/09/09 00:42:58;;;;;;;9.33;8.43;;;;;;;;;;5027658;28;20487;-82
2021/09/09 00:45:24;;;;;;;9.67;8.73;;;;;;;;;;5042266;28;20395;-82
2021/09/09 00:47:50;;;;;;;10.37;8.90;;;;;;;;;;5032497;28;20479;-83
2021/09/09 00:50:16;;;;;;;10.33;9.30;;;;;;;;;;5026133;28;20443;-83
2021/09/09 00:52:45;;;;;;;10.77;9.60;;;;;;;;;;5046492;28;20451;-82
2021/09/09 00:55:11;;;;;;;10.57;9.30;;;;;;;;;;5027173;28;21010;-82
2021/09/09 00:57:37;;;;;;;10.13;8.97;;;;;;;;;;5030363;28;20420;-82
2021/09/09 01:00:04;;;;;;;10.47;9.47;;;;;;;;;;5047202;28;20411;-82
2021/09/09 01:02:30;;;;;;;10.60;9.50;;;;;;;;;;5024021;28;20444;-82
2021/09/09 01:04:56;;;;;;;10.27;8.90;;;;;;;;;;5046087;28;20436;-82
2021/09/09 01:07:22;;;;;;;10.80;8.90;;;;;;;;;;5045489;28;20486;-83
2021/09/09 01:09:48;;;;;;;11.47;10.10;;;;;;;;;;5045717;28;20443;-83
2021/09/09 01:12:14;;;;;;;9.93;8.90;;;;;;;;;;5025260;28;20419;-83
2021/09/09 01:14:40;;;;;;;11.33;9.03;;;;;;;;;;5021778;28;20444;-83
2021/09/09 01:17:06;;;;;;;11.33;8.97;;;;;;;;;;5054022;28;20432;-83
2021/09/09 01:19:33;;;;;;;11.30;9.70;;;;;;;;;;5024387;28;20435;-83
2021/09/09 01:21:59;;;;;;;10.93;9.77;;;;;;;;;;5042594;28;20440;-83
2021/09/09 01:24:25;;;;;;;10.80;9.90;;;;;;;;;;5032307;28;20421;-82
2021/09/09 01:26:54;;;;;;;10.23;9.00;;;;;;;;;;5029515;28;20444;-83
2021/09/09 01:29:21;;;;;;;14.43;9.63;;;;;;;;;;5027213;28;20471;-82
2021/09/09 01:31:48;;;;;;;12.23;9.77;;;;;;;;;;5044443;28;20451;-82
2021/09/09 01:34:14;;;;;;;12.17;9.40;;;;;;;;;;5026674;28;20513;-82
2021/09/09 01:36:40;;;;;;;11.40;9.30;;;;;;;;;;5045013;28;20427;-82
2021/09/09 01:39:06;;;;;;;11.83;10.33;;;;;;;;;;5028586;28;20391;-82
2021/09/09 01:41:32;;;;;;;10.40;9.40;;;;;;;;;;5025935;28;20436;-82
2021/09/09 01:43:58;;;;;;;14.20;9.87;;;;;;;;;;5025758;28;20443;-82
2021/09/09 01:46:24;;;;;;;13.40;9.50;;;;;;;;;;5037692;28;20432;-82
2021/09/09 01:48:50;;;;;;;11.07;9.30;;;;;;;;;;5027789;28;20410;-82
2021/09/09 01:51:16;;;;;;;10.93;9.93;;;;;;;;;;5028541;28;20942;-81
2021/09/09 01:53:42;;;;;;;11.00;10.00;;;;;;;;;;5024976;28;20828;-82
2021/09/09 01:56:08;;;;;;;10.77;9.60;;;;;;;;;;5024554;28;20415;-82
2021/09/09 01:58:34;;;;;;;10.70;9.60;;;;;;;;;;5044410;28;20498;-83
2021/09/09 02:01:00;;;;;;;10.70;8.57;;;;;;;;;;5042417;28;20422;-83
2021/09/09 02:03:26;;;;;;;13.10;9.90;;;;;;;;;;5032080;28;20398;-84
2021/09/09 02:05:52;;;;;;;10.83;9.80;;;;;;;;;;5023826;28;20435;-83
2021/09/09 02:08:18;;;;;;;10.10;9.17;;;;;;;;;;5023767;28;20407;-84
2021/09/09 02:10:44;;;;;;;11.17;9.90;;;;;;;;;;5038637;28;20456;-85
2021/09/09 02:13:10;;;;;;;10.20;9.30;;;;;;;;;;5023167;28;20444;-84
2021/09/09 02:15:36;;;;;;;10.93;9.57;;;;;;;;;;5029765;28;20455;-84
2021/09/09 02:18:02;;;;;;;10.57;9.57;;;;;;;;;;5028509;28;20398;-84
2021/09/09 02:20:29;;;;;;;11.43;10.23;;;;;;;;;;5044032;28;20786;-84
2021/09/09 02:22:55;;;;;;;11.53;8.77;;;;;;;;;;5044293;28;20448;-84
2021/09/09 02:25:21;;;;;;;16.53;10.40;;;;;;;;;;5025025;28;20442;-84
2021/09/09 02:27:47;;;;;;;10.43;9.33;;;;;;;;;;5027914;28;20424;-85
2021/09/09 02:30:14;;;;;;;11.87;10.67;;;;;;;;;;5027039;28;20431;-84
2021/09/09 02:32:40;;;;;;;11.77;10.57;;;;;;;;;;5032245;28;20514;-84
2021/09/09 02:35:06;;;;;;;11.90;10.70;;;;;;;;;;5025499;28;20460;-84
2021/09/09 02:37:32;;;;;;;11.73;9.97;;;;;;;;;;5023530;28;20444;-84
2021/09/09 02:39:58;;;;;;;10.47;9.53;;;;;;;;;;5025660;28;20460;-83
2021/09/09 02:42:24;;;;;;;9.73;8.83;;;;;;;;;;5026900;28;20420;-83
2021/09/09 02:44:50;;;;;;;10.47;9.57;;;;;;;;;;5029979;28;20433;-83
2021/09/09 02:47:16;;;;;;;10.93;9.27;;;;;;;;;;5023694;28;20440;-83
2021/09/09 02:49:42;;;;;;;9.70;8.70;;;;;;;;;;5023467;28;20441;-83
2021/09/09 02:52:08;;;;;;;10.80;9.70;;;;;;;;;;5023473;28;20459;-83
2021/09/09 02:54:34;;;;;;;11.53;9.93;;;;;;;;;;5042762;28;20446;-83
2021/09/09 02:57:00;;;;;;;11.10;10.00;;;;;;;;;;5043140;28;20405;-83
2021/09/09 02:59:26;;;;;;;11.10;9.43;;;;;;;;;;5030048;28;20438;-83
2021/09/09 03:01:52;;;;;;;10.27;9.27;;;;;;;;;;5024564;28;20422;-83
2021/09/09 03:04:18;;;;;;;11.83;9.30;;;;;;;;;;5023080;28;20416;-83
2021/09/09 03:06:44;;;;;;;12.50;9.70;;;;;;;;;;5026600;28;20935;-83
2021/09/09 03:09:10;;;;;;;11.60;10.20;;;;;;;;;;5028971;28;20991;-83
2021/09/09 03:11:36;;;;;;;10.93;9.90;;;;;;;;;;5043452;28;20432;-83
2021/09/09 03:14:02;;;;;;;11.90;10.60;;;;;;;;;;5022086;28;20464;-83
2021/09/09 03:16:28;;;;;;;10.90;9.90;;;;;;;;;;5024669;28;20419;-83
2021/09/09 03:18:54;;;;;;;13.23;11.83;;;;;;;;;;5025766;28;20438;-83
2021/09/09 03:21:20;;;;;;;11.53;10.53;;;;;;;;;;5026115;28;20400;-84
2021/09/09 03:23:46;;;;;;;12.10;10.87;;;;;;;;;;5031497;28;20415;-84
2021/09/09 03:26:12;;;;;;;12.00;10.70;;;;;;;;;;5023034;28;20415;-84
2021/09/09 03:28:38;;;;;;;11.07;10.07;;;;;;;;;;5023396;28;20422;-84
2021/09/09 03:31:04;;;;;;;12.10;10.87;;;;;;;;;;5018364;28;20444;-84
2021/09/09 03:33:30;;;;;;;12.73;11.53;;;;;;;;;;5003496;28;20438;-84
2021/09/09 03:35:56;;;;;;;13.60;12.30;;;;;;;;;;4997683;28;20444;-84
2021/09/09 03:38:23;;;;;;;17.00;11.20;;;;;;;;;;4999838;28;20465;-83
2021/09/09 03:40:49;;;;;;;11.20;10.10;;;;;;;;;;5000460;28;20405;-84
2021/09/09 03:43:15;;;;;;;11.00;9.90;;;;;;;;;;4998807;28;20413;-84
2021/09/09 03:45:41;;;;;;;11.37;10.20;;;;;;;;;;5018698;28;20445;-84
2021/09/09 03:48:07;;;;;;;11.50;10.23;;;;;;;;;;5019025;28;20742;-84
2021/09/09 03:50:33;;;;;;;11.40;10.30;;;;;;;;;;5002629;28;20444;-83
2021/09/09 03:52:59;;;;;;;12.27;11.00;;;;;;;;;;4999286;28;20519;-84
2021/09/09 03:55:25;;;;;;;11.90;10.70;;;;;;;;;;5014681;28;20503;-84
2021/09/09 03:57:51;;;;;;;13.63;10.73;;;;;;;;;;5003307;28;20473;-84
2021/09/09 04:00:18;;;;;;;11.30;10.30;;;;;;;;;;5004321;28;20462;-85
2021/09/09 04:02:44;;;;;;;12.43;10.47;;;;;;;;;;4998977;28;20434;-84
2021/09/09 04:05:10;;;;;;;12.00;10.83;;;;;;;;;;5002520;28;20557;-83
2021/09/09 04:07:36;;;;;;;11.67;10.47;;;;;;;;;;4998846;28;20928;-85
2021/09/09 04:10:03;;;;;;;10.30;9.37;;;;;;;;;;5000619;28;20517;-84
2021/09/09 04:12:29;;;;;;;11.97;10.10;;;;;;;;;;5003235;28;20407;-84
2021/09/09 04:14:54;;;;;;;10.43;9.43;;;;;;;;;;5003262;28;20432;-84
2021/09/09 04:17:20;;;;;;;10.70;9.70;;;;;;;;;;5001387;28;20409;-83
2021/09/09 04:19:46;;;;;;;10.37;9.43;;;;;;;;;;4998750;28;20412;-83
2021/09/09 04:22:12;;;;;;;10.43;9.53;;;;;;;;;;4999306;28;20435;-83
2021/09/09 04:24:38;;;;;;;11.33;10.13;;;;;;;;;;5004486;28;20441;-83
2021/09/09 04:27:05;;;;;;;12.50;11.40;;;;;;;;;;5018981;28;20496;-83
2021/09/09 04:29:31;;;;;;;11.63;10.50;;;;;;;;;;4999302;28;20428;-83
2021/09/09 04:31:57;;;;;;;10.70;9.60;;;;;;;;;;5012840;28;20439;-83
2021/09/09 04:34:23;;;;;;;10.50;9.60;;;;;;;;;;5024457;28;20526;-83
2021/09/09 04:36:49;;;;;;;10.93;9.93;;;;;;;;;;5025471;28;20444;-83
2021/09/09 04:39:15;;;;;;;11.80;10.50;;;;;;;;;;5021535;28;20491;-83
2021/09/09 04:41:41;;;;;;;11.23;10.13;;;;;;;;;;5055504;28;20432;-82
2021/09/09 04:44:07;;;;;;;11.98;10.25;;;;;;;;;;5021270;28;20186;-82
2021/09/09 04:46:34;;;;;;;12.03;10.00;;;;;;;;;;5022132;28;20240;-83
2021/09/09 04:49:00;;;;;;;12.27;11.07;;;;;;;;;;5040256;28;20411;-83
2021/09/09 04:51:26;;;;;;;12.53;11.23;;;;;;;;;;5029608;28;20177;-84
2021/09/09 04:53:52;;;;;;;12.43;11.13;;;;;;;;;;5041662;28;20474;-83
2021/09/09 04:56:18;;;;;;;11.93;10.23;;;;;;;;;;5021534;28;20463;-84
2021/09/09 04:58:44;;;;;;;11.75;10.45;;;;;;;;;;5041047;28;20184;-84
2021/09/09 05:01:10;;;;;;;14.60;11.48;;;;;;;;;;5039081;28;20237;-83
2021/09/09 05:03:36;;;;;;;14.10;11.27;;;;;;;;;;5027595;28;20182;-83
2021/09/09 05:06:02;;;;;;;15.33;11.13;;;;;;;;;;5026748;28;20261;-83
2021/09/09 05:08:28;;;;;;;12.20;11.07;;;;;;;;;;5026704;28;20407;-83
2021/09/09 05:10:54;;;;;;;12.03;10.80;;;;;;;;;;5028257;28;20543;-86
2021/09/09 05:13:20;;;;;;;11.93;10.73;;;;;;;;;;5043242;28;20954;-86
2021/09/09 05:15:46;;;;;;;11.85;10.02;;;;;;;;;;5042468;28;20716;-86
2021/09/09 05:18:12;;;;;;;11.63;10.43;;;;;;;;;;5025800;28;20182;-86
2021/09/09 05:20:38;;;;;;;12.60;11.30;;;;;;;;;;5031254;28;20185;-86
2021/09/09 05:23:04;;;;;;;11.50;10.37;;;;;;;;;;5024879;28;20444;-86
2021/09/09 05:25:30;;;;;;;15.30;13.70;;;;;;;;;;5038791;28;20986;-85
2021/09/09 05:27:56;;;;;;;18.75;15.57;;;;;;;;;;5032920;28;20236;-85
2021/09/09 05:30:22;;;;;;;19.90;15.40;;;;;;;;;;5024850;28;20592;-84
2021/09/09 05:32:48;;;;;;;19.13;15.47;;;;;;;;;;5043496;28;20457;-84
2021/09/09 05:35:14;;;;;;;19.63;17.02;;;;;;;;;;5024443;28;20442;-85
2021/09/09 05:37:40;;;;;;;21.08;16.45;;;;;;;;;;5035515;28;20197;-86
2021/09/09 05:40:08;;;;;;;21.30;17.10;;;;;;;;;;5030237;28;20182;-85
2021/09/09 05:42:34;;;;;;;21.10;16.73;;;;;;;;;;5030109;28;20444;-85
2021/09/09 05:45:00;;;;;;;17.05;15.23;;;;;;;;;;5015925;28;20545;-85
2021/09/09 05:47:26;;;;;;;17.90;15.87;;;;;;;;;;5026579;28;20288;-86
2021/09/09 05:49:52;;;;;;;17.90;15.57;;;;;;;;;;5045164;28;20464;-85
2021/09/09 05:52:18;;;;;;;17.93;15.90;;;;;;;;;;5023265;28;20199;-85
2021/09/09 05:54:44;;;;;;;17.77;14.40;;;;;;;;;;5027767;28;20460;-85
2021/09/09 05:57:10;;;;;;;19.60;16.60;;;;;;;;;;5028494;28;20420;-87
2021/09/09 05:59:36;;;;;;;17.60;13.98;;;;;;;;;;5044638;28;20693;-85
2021/09/09 06:02:02;;;;;;;15.53;13.93;;;;;;;;;;5027071;28;20186;-86
2021/09/09 06:04:33;;;;;;;16.00;13.97;;;;;;;;;;5031880;28;20450;-85
2021/09/09 06:07:00;;;;;;;17.70;15.23;;;;;;;;;;5031126;28;20427;-86
2021/09/09 06:09:26;;;;;;;15.90;14.18;;;;;;;;;;5029538;28;20422;-86
2021/09/09 06:11:52;;;;;;;17.23;14.50;;;;;;;;;;5025145;28;20216;-86
2021/09/09 06:14:18;;;;;;;14.23;12.70;;;;;;;;;;5043441;28;20229;-85
2021/09/09 06:16:44;;;;;;;18.90;16.03;;;;;;;;;;5025865;28;20442;-86
2021/09/09 06:19:10;;;;;;;16.50;14.50;;;;;;;;;;5023641;28;20440;-85
2021/09/09 06:21:36;;;;;;;17.80;13.17;;;;;;;;;;5037022;28;20443;-84
2021/09/09 06:24:06;;;;;;;16.73;14.00;;;;;;;;;;5025217;28;20494;-86
2021/09/09 06:26:32;;;;;;;19.00;15.10;;;;;;;;;;5034008;28;20415;-84
2021/09/09 06:28:58;;;;;;;17.20;14.60;;;;;;;;;;5020318;28;20412;-83
2021/09/09 06:31:24;;;;;;;18.80;15.67;;;;;;;;;;5032141;28;20454;-85
2021/09/09 06:33:50;;;;;;;17.60;15.13;;;;;;;;;;5041657;28;20544;-84
2021/09/09 06:36:16;;;;;;;23.33;15.10;;;;;;;;;;5032096;28;20413;-84
2021/09/09 06:38:42;;;;;;;15.70;14.00;;;;;;;;;;5035385;28;20490;-85
2021/09/09 06:41:08;;;;;;;18.57;15.80;;;;;;;;;;5029829;28;20959;-84
2021/09/09 06:43:34;;;;;;;21.30;17.30;;;;;;;;;;5054172;28;20485;-85
2021/09/09 06:46:00;;;;;;;21.97;17.20;;;;;;;;;;5052581;28;20500;-83
2021/09/09 06:48:26;;;;;;;18.37;14.73;;;;;;;;;;5038504;28;21592;-84
2021/09/09 06:50:52;;;;;;;18.73;14.83;;;;;;;;;;5053190;28;20432;-84
2021/09/09 06:53:19;;;;;;;19.00;15.40;;;;;;;;;;5038411;28;20446;-84
2021/09/09 06:55:46;;;;;;;17.00;14.83;;;;;;;;;;5051742;28;20467;-83
2021/09/09 06:58:12;;;;;;;21.37;16.47;;;;;;;;;;5052490;28;20436;-83
2021/09/09 07:00:38;;;;;;;18.70;15.17;;;;;;;;;;5042678;28;20529;-83
2021/09/09 07:03:04;;;;;;;20.10;14.70;;;;;;;;;;5033121;28;20905;-83
2021/09/09 07:05:30;;;;;;;18.83;13.90;;;;;;;;;;5047939;28;20427;-85
2021/09/09 07:07:56;;;;;;;18.67;15.77;;;;;;;;;;5048934;28;20906;-84
2021/09/09 07:10:24;;;;;;;20.50;15.80;;;;;;;;;;5041378;28;20478;-84
2021/09/09 07:12:50;;;;;;;17.70;15.30;;;;;;;;;;5047217;28;20453;-85
2021/09/09 07:15:16;;;;;;;17.60;13.63;;;;;;;;;;5021412;28;20987;-86
2021/09/09 07:17:42;;;;;;;19.83;13.47;;;;;;;;;;5037541;28;20515;-87
2021/09/09 07:20:09;;;;;;;16.03;13.60;;;;;;;;;;5039898;28;20473;-87
2021/09/09 07:22:35;;;;;;;15.07;13.47;;;;;;;;;;5028052;28;20415;-91
2021/09/09 07:25:01;;;;;;;15.30;12.60;;;;;;;;;;5026217;28;20418;-91
2021/09/09 07:27:27;;;;;;;14.23;12.23;;;;;;;;;;5031304;28;20519;-93
2021/09/09 07:29:53;;;;;;;14.77;12.37;;;;;;;;;;5040454;28;20444;-93
2021/09/09 07:32:19;;;;;;;16.20;12.57;;;;;;;;;;5032439;28;20468;-90
2021/09/09 07:34:45;;;;;;;17.60;12.17;;;;;;;;;;5038818;28;20443;-91
2021/09/09 07:37:11;;;;;;;14.33;12.70;;;;;;;;;;5040316;28;20444;-91
2021/09/09 07:39:37;;;;;;;12.27;11.00;;;;;;;;;;5042159;28;20563;-89
2021/09/09 07:42:03;;;;;;;12.60;10.80;;;;;;;;;;5026910;28;20424;-90
2021/09/09 07:44:29;;;;;;;14.00;10.90;;;;;;;;;;5056266;28;20937;-91
2021/09/09 07:46:55;;;;;;;15.40;10.47;;;;;;;;;;5023420;28;20404;-90
2021/09/09 07:49:21;;;;;;;12.43;10.60;;;;;;;;;;5022204;28;20436;-92
2021/09/09 07:51:48;;;;;;;13.90;12.20;;;;;;;;;;5055993;28;20490;-89
2021/09/09 07:54:14;;;;;;;14.33;12.10;;;;;;;;;;5040946;28;20491;-90
2021/09/09 07:56:41;;;;;;;13.00;11.63;;;;;;;;;;5037720;28;20428;-87
2021/09/09 07:59:07;;;;;;;11.40;10.23;;;;;;;;;;5036310;28;20465;-87
2021/09/09 08:01:33;;;;;;;14.43;11.07;;;;;;;;;;5023802;28;20515;-87
2021/09/09 08:03:59;;;;;;;11.27;10.17;;;;;;;;;;5020899;28;21011;-88
2021/09/09 08:06:25;;;;;;;13.40;11.23;;;;;;;;;;5017884;28;20470;-87
2021/09/09 08:08:51;;;;;;;14.47;11.57;;;;;;;;;;5022447;28;20480;-87
2021/09/09 08:11:17;;;;;;;16.53;12.47;;;;;;;;;;5040794;28;20421;-88
2021/09/09 08:13:43;;;;;;;15.57;12.27;;;;;;;;;;5020240;28;20436;-87
2021/09/09 08:16:09;;;;;;;13.30;10.90;;;;;;;;;;5021829;28;20971;-87
2021/09/09 08:18:35;;;;;;;12.70;11.30;;;;;;;;;;5057500;28;20422;-87
2021/09/09 08:21:01;;;;;;;14.73;11.77;;;;;;;;;;5024166;28;20422;-88
2021/09/09 08:23:27;;;;;;;17.30;12.07;;;;;;;;;;5055208;28;20502;-87
2021/09/09 08:25:54;;;;;;;13.67;10.90;;;;;;;;;;5023843;28;20436;-88
2021/09/09 08:28:20;;;;;;;13.53;11.30;;;;;;;;;;5021834;28;20445;-88
2021/09/09 08:30:46;;;;;;;13.40;10.70;;;;;;;;;;5055674;28;20517;-87
2021/09/09 08:33:12;;;;;;;12.57;11.10;;;;;;;;;;5025079;28;20436;-87
2021/09/09 08:35:41;;;;;;;12.70;10.70;;;;;;;;;;5038475;28;20537;-86
2021/09/09 08:38:07;;;;;;;16.30;11.60;;;;;;;;;;5021592;28;20438;-88
2021/09/09 08:40:36;;;;;;;12.93;11.07;;;;;;;;;;5021628;28;20490;-87
2021/09/09 08:43:02;;;;;;;14.23;11.33;;;;;;;;;;5026777;28;20941;-87
2021/09/09 08:45:28;;;;;;;13.53;12.13;;;;;;;;;;5058434;28;20414;-87
2021/09/09 08:47:55;;;;;;;12.83;10.40;;;;;;;;;;5021534;28;20423;-87
2021/09/09 08:50:21;;;;;;;15.60;11.17;;;;;;;;;;5021202;28;20444;-86
2021/09/09 08:52:49;;;;;;;12.33;11.03;;;;;;;;;;5021584;28;20454;-87
2021/09/09 08:55:16;;;;;;;14.17;11.67;;;;;;;;;;5023359;28;20435;-86
2021/09/09 08:57:42;;;;;;;11.30;10.10;;;;;;;;;;5044450;28;20774;-88
2021/09/09 09:00:08;;;;;;;13.40;12.03;;;;;;;;;;5026596;28;20474;-86
2021/09/09 09:02:47;;;;;;;10.87;9.70;;;;;;;;;;5057057;28;20426;-87
2021/09/09 09:05:13;;;;;;;13.40;11.60;;;;;;;;;;5026359;28;20432;-87
2021/09/09 09:07:39;;;;;;;16.80;14.00;;;;;;;;;;5025187;28;20444;-86
2021/09/09 09:10:07;;;;;;;17.57;13.13;;;;;;;;;;5029390;28;20435;-86
2021/09/09 09:12:39;;;;;;;16.77;12.73;;;;;;;;;;5027500;28;20432;-87
2021/09/09 09:15:11;;;;;;;15.87;12.40;;;;;;;;;;5027177;28;20467;-85
2021/09/09 09:17:57;;;;;;;15.07;12.60;;;;;;;;;;5060064;28;20419;-87
2021/09/09 09:20:25;;;;;;;16.00;12.40;;;;;;;;;;5042375;28;20438;-87
2021/09/09 09:22:52;;;;;;;15.90;12.93;;;;;;;;;;5024909;28;20438;-87
2021/09/09 09:25:18;;;;;;;14.43;12.50;;;;;;;;;;5026414;28;20452;-87
2021/09/09 09:27:46;;;;;;;14.20;11.80;;;;;;;;;;5059980;28;20430;-87
2021/09/09 09:30:12;;;;;;;13.50;11.20;;;;;;;;;;5026684;28;20427;-88
2021/09/09 09:32:49;;;;;;;14.73;11.63;;;;;;;;;;5054570;28;20439;-87
2021/09/09 09:35:16;;;;;;;15.53;12.27;;;;;;;;;;5022786;28;20476;-87
2021/09/09 09:38:06;;;;;;;17.93;12.53;;;;;;;;;;5019785;28;20416;-87
2021/09/09 09:40:33;;;;;;;15.27;13.40;;;;;;;;;;5027715;28;20435;-87
2021/09/09 09:43:00;;;;;;;17.77;13.53;;;;;;;;;;5023806;28;20436;-87
2021/09/09 09:45:26;;;;;;;13.33;11.37;;;;;;;;;;5024183;28;20419;-88
2021/09/09 09:47:52;;;;;;;14.83;12.17;;;;;;;;;;5028176;28;20442;-88
2021/09/09 09:50:19;;;;;;;15.77;12.37;;;;;;;;;;5027251;28;20454;-87
2021/09/09 09:52:45;;;;;;;14.80;12.90;;;;;;;;;;5022257;28;20447;-88
2021/09/09 09:55:11;;;;;;;14.53;12.23;;;;;;;;;;5022304;28;20476;-88
2021/09/09 09:57:53;;;;;;;14.60;12.40;;;;;;;;;;5057143;28;20457;-88
2021/09/09 10:00:19;;;;;;;18.67;11.53;;;;;;;;;;5023537;28;20419;-87
2021/09/09 10:02:46;;;;;;;11.80;9.70;;;;;;;;;;5055272;28;20444;-88
2021/09/09 10:05:13;;;;;;;14.30;10.40;;;;;;;;;;5016621;28;20446;-87
2021/09/09 10:07:39;;;;;;;11.87;10.47;;;;;;;;;;5026910;28;20456;-88
2021/09/09 10:10:05;;;;;;;13.83;9.67;;;;;;;;;;5020454;28;20473;-87
2021/09/09 10:12:31;;;;;;;13.10;9.33;;;;;;;;;;5056539;28;20432;-86
2021/09/09 10:15:00;;;;;;;12.63;9.43;;;;;;;;;;5018476;28;20442;-86
2021/09/09 10:17:27;;;;;;;8.63;7.80;;;;;;;;;;5020234;28;20446;-87
2021/09/09 10:19:53;;;;;;;11.00;9.33;;;;;;;;;;5055086;28;20477;-86
2021/09/09 10:22:20;;;;;;;11.67;9.43;;;;;;;;;;5019820;28;20449;-86
2021/09/09 10:24:47;;;;;;;10.33;8.07;;;;;;;;;;5055208;28;20492;-89
2021/09/09 10:27:19;;;;;;;8.33;7.60;;;;;;;;;;5010543;28;20427;-87
2021/09/09 10:29:46;;;;;;;8.87;7.57;;;;;;;;;;5036725;28;20456;-86
2021/09/09 10:32:31;;;;;;;8.30;6.53;;;;;;;;;;5020324;28;20468;-86
2021/09/09 10:37:43;;;;;;;8.53;6.80;;;;;;;;;;5018782;28;20597;-83
2021/09/09 10:40:10;;;;;;;6.20;5.60;;;;;;;;;;5036654;28;20441;-84
2021/09/09 10:42:40;;;;;;;6.50;5.90;;;;;;;;;;5054651;28;20443;-86
2021/09/09 10:45:13;;;;;;;6.50;5.90;;;;;;;;;;5029417;28;20456;-86
2021/09/09 10:47:51;;;;;;;6.20;5.43;;;;;;;;;;5032778;28;20567;-87
2021/09/09 10:50:23;;;;;;;5.30;4.80;;;;;;;;;;5028571;28;20445;-86
2021/09/09 10:53:01;;;;;;;5.40;4.90;;;;;;;;;;5036202;28;20460;-86
2021/09/09 10:55:28;;;;;;;7.17;5.87;;;;;;;;;;5036656;28;20477;-86
2021/09/09 10:58:15;;;;;;;5.60;5.10;;;;;;;;;;5016883;28;20436;-85
2021/09/09 11:00:54;;;;;;;6.90;4.63;;;;;;;;;;5021696;28;20459;-85
2021/09/09 11:03:32;;;;;;;4.97;4.57;;;;;;;;;;5027993;28;20402;-85
2021/09/09 11:05:58;;;;;;;5.23;4.37;;;;;;;;;;5009340;28;20459;-82
2021/09/09 11:08:28;;;;;;;4.33;3.93;;;;;;;;;;5016206;28;20795;-83
2021/09/09 11:10:54;;;;;;;3.70;3.40;;;;;;;;;;5022415;28;20496;-83
2021/09/09 11:13:27;;;;;;;3.43;3.13;;;;;;;;;;5019597;28;20484;-85
2021/09/09 11:15:53;;;;;;;3.30;2.97;;;;;;;;;;5022102;28;20996;-84
2021/09/09 11:18:30;;;;;;;3.33;3.10;;;;;;;;;;5022804;28;20417;-86
2021/09/09 11:21:03;;;;;;;3.10;2.90;;;;;;;;;;5032682;28;20415;-85
2021/09/09 11:23:29;;;;;;;3.33;3.07;;;;;;;;;;5020090;28;20776;-84
2021/09/09 11:25:55;;;;;;;2.87;2.50;;;;;;;;;;5017772;28;20415;-84
2021/09/09 11:28:21;;;;;;;2.70;2.50;;;;;;;;;;5020950;28;20534;-85
2021/09/09 11:31:07;;;;;;;2.50;2.30;;;;;;;;;;5054865;28;20485;-86
2021/09/09 11:33:33;;;;;;;3.40;2.03;;;;;;;;;;5019853;28;20439;-84
2021/09/09 11:36:03;;;;;;;2.60;2.40;;;;;;;;;;5022030;28;20436;-83
2021/09/09 11:38:32;;;;;;;2.47;2.27;;;;;;;;;;5039222;28;20456;-84
2021/09/09 11:41:09;;;;;;;2.37;1.90;;;;;;;;;;5037369;28;20932;-83
2021/09/09 11:43:35;;;;;;;4.77;2.50;;;;;;;;;;5033544;28;20454;-87
2021/09/09 11:46:03;;;;;;;2.33;2.13;;;;;;;;;;5029788;28;20445;-87
2021/09/09 11:48:29;;;;;;;2.03;1.93;;;;;;;;;;5033900;28;20931;-86
2021/09/09 11:50:55;;;;;;;2.80;2.50;;;;;;;;;;5050576;28;20425;-89
2021/09/09 11:53:26;;;;;;;2.40;1.90;;;;;;;;;;5034745;28;20437;-85
2021/09/09 11:55:52;;;;;;;2.97;1.80;;;;;;;;;;5047289;28;20472;-84
2021/09/09 11:58:38;;;;;;;2.70;2.10;;;;;;;;;;5039510;28;20449;-87
2021/09/09 12:01:06;;;;;;;3.03;2.10;;;;;;;;;;5024280;28;20439;-85
2021/09/09 12:03:32;;;;;;;3.37;2.57;;;;;;;;;;5026169;28;20491;-86
2021/09/09 12:05:59;;;;;;;3.90;2.20;;;;;;;;;;5022939;28;20464;-86
2021/09/09 12:08:25;;;;;;;1.70;1.60;;;;;;;;;;5049278;28;20468;-87
2021/09/09 12:10:51;;;;;;;2.40;2.20;;;;;;;;;;5030429;28;20431;-86
2021/09/09 12:13:30;;;;;;;2.20;2.00;;;;;;;;;;5022069;28;20477;-85
2021/09/09 12:16:08;;;;;;;2.03;1.43;;;;;;;;;;5056032;28;20491;-85
2021/09/09 12:18:34;;;;;;;3.10;2.10;;;;;;;;;;5021021;28;21023;-84
2021/09/09 12:21:10;;;;;;;2.30;1.83;;;;;;;;;;5019374;28;20426;-83
2021/09/09 12:23:36;;;;;;;1.83;1.40;;;;;;;;;;5028079;28;20443;-85
2021/09/09 12:26:15;;;;;;;1.30;1.20;;;;;;;;;;5028124;28;20433;-87
2021/09/09 12:28:41;;;;;;;1.87;1.50;;;;;;;;;;5026455;28;20459;-84
2021/09/09 12:31:08;;;;;;;1.10;1.00;;;;;;;;;;5041414;28;20464;-83
2021/09/09 12:33:35;;;;;;;1.43;1.17;;;;;;;;;;5061243;28;20434;-85
2021/09/09 12:36:05;;;;;;;1.60;1.47;;;;;;;;;;5046812;28;20528;-85
2021/09/09 12:38:32;;;;;;;3.27;1.00;;;;;;;;;;5035699;28;20455;-86
2021/09/09 12:40:58;;;;;;;1.30;1.00;;;;;;;;;;5034324;28;20440;-87
2021/09/09 12:43:24;;;;;;;1.43;0.90;;;;;;;;;;5024853;28;20436;-87
2021/09/09 12:45:50;;;;;;;1.43;0.87;;;;;;;;;;5045702;28;20542;-84
2021/09/09 12:48:16;;;;;;;4.30;1.57;;;;;;;;;;5030074;28;20430;-86
2021/09/09 12:51:15;;;;;;;1.07;0.90;;;;;;;;;;5058745;28;20455;-87
2021/09/09 12:53:41;;;;;;;1.70;1.10;;;;;;;;;;4973783;28;20525;-84
2021/09/09 12:56:09;;;;;;;1.23;1.13;;;;;;;;;;4992412;28;20542;-85
2021/09/09 12:58:35;;;;;;;1.50;1.13;;;;;;;;;;4974232;28;21035;-89
2021/09/09 13:01:01;;;;;;;1.10;0.90;;;;;;;;;;4966928;28;20463;-88
2021/09/09 13:03:28;;;;;;;1.50;1.17;;;;;;;;;;4964412;28;20743;-85
2021/09/09 13:05:54;;;;;;;1.40;1.23;;;;;;;;;;4981059;28;20451;-88
2021/09/09 13:08:20;;;;;;;1.87;1.13;;;;;;;;;;4981228;28;20458;-84
2021/09/09 13:10:46;;;;;;;1.77;0.90;;;;;;;;;;4978374;28;20444;-83
2021/09/09 13:13:12;;;;;;;1.10;1.00;;;;;;;;;;4964603;28;20793;-80
2021/09/09 13:15:39;;;;;;;1.53;1.00;;;;;;;;;;4966825;28;20463;-81
2021/09/09 13:18:05;;;;;;;1.20;0.80;;;;;;;;;;4966039;28;20426;-82
2021/09/09 13:20:35;;;;;;;3.17;0.90;;;;;;;;;;4976893;28;20435;-83
2021/09/09 13:23:01;;;;;;;1.10;1.00;;;;;;;;;;4980061;28;20449;-83
2021/09/09 13:25:27;;;;;;;1.10;1.00;;;;;;;;;;4976789;28;20447;-82
2021/09/09 13:27:53;;;;;;;1.13;1.10;;;;;;;;;;4967555;28;20443;-83
2021/09/09 13:30:19;;;;;;;1.57;0.90;;;;;;;;;;5023573;28;20437;-82
2021/09/09 13:32:45;;;;;;;2.43;0.80;;;;;;;;;;5043452;28;20475;-83
2021/09/09 13:35:11;;;;;;;0.80;0.80;;;;;;;;;;5039671;28;20495;-83
2021/09/09 13:37:37;;;;;;;1.17;0.90;;;;;;;;;;5038871;28;20455;-83
2021/09/09 13:40:04;;;;;;;1.03;1.03;;;;;;;;;;5025377;28;20540;-86
2021/09/09 13:42:30;;;;;;;1.53;0.90;;;;;;;;;;5050301;28;20456;-83
2021/09/09 13:44:56;;;;;;;1.37;1.00;;;;;;;;;;5024585;28;20432;-82
2021/09/09 13:47:23;;;;;;;1.07;0.97;;;;;;;;;;5030590;28;20440;-84
2021/09/09 13:49:49;;;;;;;2.80;1.07;;;;;;;;;;5033993;28;20504;-85
2021/09/09 13:52:17;;;;;;;1.60;1.00;;;;;;;;;;5039191;28;20480;-89
2021/09/09 13:54:43;;;;;;;2.50;1.43;;;;;;;;;;5030812;28;21073;-81
2021/09/09 13:57:09;;;;;;;1.93;0.90;;;;;;;;;;5056675;28;20467;-84
2021/09/09 13:59:36;;;;;;;1.23;1.10;;;;;;;;;;5028251;28;20436;-84
2021/09/09 14:02:02;;;;;;;2.00;1.20;;;;;;;;;;5022845;28;20437;-81
2021/09/09 14:04:28;;;;;;;1.13;0.87;;;;;;;;;;5024109;28;20479;-82
2021/09/09 14:06:54;;;;;;;1.30;0.90;;;;;;;;;;5025000;28;20836;-84
2021/09/09 14:09:21;;;;;;;3.77;1.17;;;;;;;;;;5045128;28;20428;-82
2021/09/09 14:11:47;;;;;;;1.47;0.93;;;;;;;;;;5041403;28;20428;-82
2021/09/09 14:14:13;;;;;;;1.90;1.00;;;;;;;;;;5042112;28;20578;-82
2021/09/09 14:16:41;;;;;;;1.70;1.03;;;;;;;;;;5029470;28;20479;-80
2021/09/09 14:19:07;;;;;;;3.83;1.10;;;;;;;;;;5051825;28;20526;-84
2021/09/09 14:21:33;;;;;;;1.50;0.90;;;;;;;;;;5058614;28;20923;-84
2021/09/09 14:24:00;;;;;;;2.37;1.00;;;;;;;;;;5024885;28;20429;-83
2021/09/09 14:26:26;;;;;;;0.80;0.80;;;;;;;;;;5024912;28;20439;-83
2021/09/09 14:28:52;;;;;;;2.00;1.03;;;;;;;;;;5022194;28;20451;-80
2021/09/09 14:31:18;;;;;;;0.80;0.80;;;;;;;;;;5023917;28;20472;-82